Time;durP1;ratioP1;P1;durP2;ratioP2;P2;SDS_P1;SDS_P2;PMS_P1;PMS_P2;Temp;Humidity;BMP_temperature;BMP_pressure;BME280_temperature;BME280_humidity;BME280_pressure;Samples;Min_cycle;Max_cycle;Signal;HPM_P1;HPM_P2
2022/01/13 00:00:15;;;;;;;11.73;8.00;;;;;;;;;;5049394;28;20059;-80
2022/01/13 00:02:40;;;;;;;10.85;7.47;;;;;;;;;;5011773;28;20392;-81
2022/01/13 00:05:06;;;;;;;11.38;8.18;;;;;;;;;;5040894;28;20037;-81
2022/01/13 00:07:32;;;;;;;9.52;7.00;;;;;;;;;;5018923;28;20024;-81
2022/01/13 00:09:57;;;;;;;9.65;6.65;;;;;;;;;;5000172;28;20052;-81
2022/01/13 00:12:27;;;;;;;10.48;6.63;;;;;;;;;;5016626;28;20037;-81
2022/01/13 00:18:13;;;;;;;10.35;7.15;;;;;;;;;;4976300;28;20137;-81
2022/01/13 00:20:38;;;;;;;8.77;6.38;;;;;;;;;;5018387;28;20562;-81
2022/01/13 00:25:53;;;;;;;9.63;6.70;;;;;;;;;;5046464;28;20060;-82
2022/01/13 00:28:21;;;;;;;9.05;6.30;;;;;;;;;;5032440;28;20116;-81
2022/01/13 00:30:50;;;;;;;9.27;7.05;;;;;;;;;;5048498;28;20037;-80
2022/01/13 00:33:18;;;;;;;11.13;7.53;;;;;;;;;;5032124;28;20052;-81
2022/01/13 00:35:43;;;;;;;9.85;7.10;;;;;;;;;;5049656;28;20037;-80
2022/01/13 00:38:08;;;;;;;8.65;5.85;;;;;;;;;;5035530;28;20414;-81
2022/01/13 00:40:34;;;;;;;9.02;6.28;;;;;;;;;;5039776;28;20060;-81
2022/01/13 00:42:59;;;;;;;8.93;6.70;;;;;;;;;;4999000;28;20395;-81
2022/01/13 00:45:25;;;;;;;8.35;6.40;;;;;;;;;;5026975;28;20026;-81
2022/01/13 00:47:50;;;;;;;8.38;5.97;;;;;;;;;;4986142;28;20038;-80
2022/01/13 00:50:18;;;;;;;8.85;6.75;;;;;;;;;;5028538;28;20042;-81
2022/01/13 00:52:43;;;;;;;8.90;5.80;;;;;;;;;;5015736;28;20034;-81
2022/01/13 00:55:14;;;;;;;8.40;6.15;;;;;;;;;;5015136;28;20171;-81
2022/01/13 00:57:40;;;;;;;8.57;6.45;;;;;;;;;;5047627;28;20033;-80
2022/01/13 01:00:08;;;;;;;8.18;6.07;;;;;;;;;;5031477;28;20041;-81
2022/01/13 01:02:33;;;;;;;8.75;7.00;;;;;;;;;;5047587;28;20037;-81
2022/01/13 01:04:59;;;;;;;7.88;6.55;;;;;;;;;;5047975;28;20029;-81
2022/01/13 01:07:24;;;;;;;9.48;6.43;;;;;;;;;;5047841;28;20450;-81
2022/01/13 01:09:50;;;;;;;7.88;5.68;;;;;;;;;;4998818;28;20052;-81
2022/01/13 01:12:17;;;;;;;9.60;6.43;;;;;;;;;;5011955;28;20392;-81
2022/01/13 01:14:47;;;;;;;8.48;6.78;;;;;;;;;;4995174;28;20045;-81
2022/01/13 01:17:17;;;;;;;9.68;6.22;;;;;;;;;;4995788;28;20128;-81
2022/01/13 01:19:48;;;;;;;7.85;6.07;;;;;;;;;;5031172;28;20120;-81
2022/01/13 01:22:30;;;;;;;8.15;5.68;;;;;;;;;;5022572;28;20040;-81
2022/01/13 01:27:25;;;;;;;9.40;5.95;;;;;;;;;;5047727;28;20395;-81
2022/01/13 01:30:22;;;;;;;7.45;6.22;;;;;;;;;;5005015;28;20029;-81
2022/01/13 01:32:38;;;;;;;8.55;6.13;;;;;;;;;;5034160;28;20496;-81
2022/01/13 01:35:12;;;;;;;7.45;5.75;;;;;;;;;;4998113;28;20033;-81
2022/01/13 01:37:39;;;;;;;7.30;5.32;;;;;;;;;;5047777;28;20065;-81
2022/01/13 01:40:05;;;;;;;8.80;6.50;;;;;;;;;;5014272;28;20033;-81
2022/01/13 01:42:30;;;;;;;8.02;6.03;;;;;;;;;;4998268;28;20369;-81
2022/01/13 01:44:57;;;;;;;8.93;5.97;;;;;;;;;;5030103;28;20037;-81
2022/01/13 01:47:24;;;;;;;8.30;6.13;;;;;;;;;;5047100;28;20045;-81
2022/01/13 01:49:53;;;;;;;8.13;6.47;;;;;;;;;;5013850;28;20044;-80
2022/01/13 01:52:18;;;;;;;7.80;5.63;;;;;;;;;;5014769;28;20037;-81
2022/01/13 01:54:44;;;;;;;9.73;6.22;;;;;;;;;;5030357;28;20127;-80
2022/01/13 01:57:10;;;;;;;8.55;5.93;;;;;;;;;;5047115;28;20179;-81
2022/01/13 01:59:38;;;;;;;9.02;6.22;;;;;;;;;;5046974;28;20029;-82
2022/01/13 02:02:04;;;;;;;8.10;6.10;;;;;;;;;;4999880;28;20041;-81
2022/01/13 02:04:30;;;;;;;8.32;6.03;;;;;;;;;;5030372;28;20036;-81
2022/01/13 02:06:56;;;;;;;8.00;6.03;;;;;;;;;;5014713;28;20048;-81
2022/01/13 02:09:21;;;;;;;8.68;5.70;;;;;;;;;;4997945;28;20053;-80
2022/01/13 02:11:52;;;;;;;8.05;5.70;;;;;;;;;;5014331;28;20114;-80
2022/01/13 02:17:05;;;;;;;7.80;6.15;;;;;;;;;;5047714;28;20033;-81
2022/01/13 02:19:31;;;;;;;8.32;6.47;;;;;;;;;;5048879;28;20029;-81
2022/01/13 02:21:57;;;;;;;8.27;6.13;;;;;;;;;;5044896;28;20029;-81
2022/01/13 02:24:22;;;;;;;7.93;6.22;;;;;;;;;;4997928;28;20079;-80
2022/01/13 02:26:48;;;;;;;8.52;5.82;;;;;;;;;;5013824;28;20112;-81
2022/01/13 02:29:13;;;;;;;8.32;5.57;;;;;;;;;;4997365;28;20026;-80
2022/01/13 02:31:39;;;;;;;7.78;5.88;;;;;;;;;;5014143;28;20037;-80
2022/01/13 02:34:04;;;;;;;7.90;6.32;;;;;;;;;;5012511;28;20654;-80
2022/01/13 02:36:30;;;;;;;7.85;6.15;;;;;;;;;;5033409;28;20037;-80
2022/01/13 02:38:56;;;;;;;6.95;5.38;;;;;;;;;;5027321;28;20060;-80
2022/01/13 02:41:24;;;;;;;7.03;5.53;;;;;;;;;;5009268;28;20065;-80
2022/01/13 02:43:52;;;;;;;8.98;6.80;;;;;;;;;;5030172;28;20762;-81
2022/01/13 02:49:07;;;;;;;8.48;6.30;;;;;;;;;;5048570;28;20399;-81
2022/01/13 02:51:33;;;;;;;8.32;6.10;;;;;;;;;;4985120;28;20037;-81
2022/01/13 02:53:58;;;;;;;7.05;5.72;;;;;;;;;;5014961;28;20418;-81
2022/01/13 02:56:24;;;;;;;8.18;6.10;;;;;;;;;;4981414;28;20109;-81
2022/01/13 02:58:49;;;;;;;7.28;5.50;;;;;;;;;;4986700;28;20819;-81
2022/01/13 03:01:15;;;;;;;7.97;6.25;;;;;;;;;;5037116;28;20033;-80
2022/01/13 03:03:41;;;;;;;7.80;5.47;;;;;;;;;;5033895;28;20036;-81
2022/01/13 03:06:11;;;;;;;8.07;6.70;;;;;;;;;;5050525;28;20040;-80
2022/01/13 03:08:37;;;;;;;9.05;6.00;;;;;;;;;;5033724;28;20511;-81
2022/01/13 03:11:02;;;;;;;8.45;6.13;;;;;;;;;;5043047;28;20043;-80
2022/01/13 03:13:29;;;;;;;8.00;5.85;;;;;;;;;;5016893;28;20108;-80
2022/01/13 03:15:55;;;;;;;7.47;5.97;;;;;;;;;;5017894;28;20041;-80
2022/01/13 03:18:20;;;;;;;6.93;5.40;;;;;;;;;;5017195;28;20087;-81
2022/01/13 03:20:46;;;;;;;7.03;5.55;;;;;;;;;;5033528;28;20037;-81
2022/01/13 03:23:16;;;;;;;8.45;6.53;;;;;;;;;;5014016;28;20034;-80
2022/01/13 03:25:44;;;;;;;6.25;5.22;;;;;;;;;;4997743;28;20044;-80
2022/01/13 03:28:15;;;;;;;7.28;6.00;;;;;;;;;;5031287;28;20040;-80
2022/01/13 03:30:41;;;;;;;7.30;5.70;;;;;;;;;;5037673;28;20108;-81
2022/01/13 03:33:07;;;;;;;6.68;5.63;;;;;;;;;;5042963;28;20112;-80
2022/01/13 03:35:33;;;;;;;7.05;6.07;;;;;;;;;;5017712;28;20543;-81
2022/01/13 03:37:58;;;;;;;7.70;5.60;;;;;;;;;;5033268;28;20040;-80
2022/01/13 03:40:25;;;;;;;6.70;5.35;;;;;;;;;;5024072;28;20029;-80
2022/01/13 03:42:53;;;;;;;6.80;5.00;;;;;;;;;;5000994;28;20108;-80
2022/01/13 03:45:21;;;;;;;6.70;5.63;;;;;;;;;;4984952;28;20037;-80
2022/01/13 03:47:47;;;;;;;7.28;5.93;;;;;;;;;;4981794;28;20044;-81
2022/01/13 03:50:13;;;;;;;6.22;4.68;;;;;;;;;;5025403;28;20049;-81
2022/01/13 03:53:01;;;;;;;6.35;5.25;;;;;;;;;;5010819;28;20041;-81
2022/01/13 03:55:36;;;;;;;5.97;4.75;;;;;;;;;;5011893;28;20053;-81
2022/01/13 03:58:20;;;;;;;6.60;4.80;;;;;;;;;;5038924;28;20056;-80
2022/01/13 04:00:55;;;;;;;7.10;5.10;;;;;;;;;;5036104;28;20038;-80
2022/01/13 04:03:20;;;;;;;6.97;5.30;;;;;;;;;;5030935;28;20179;-80
2022/01/13 04:05:59;;;;;;;7.45;5.63;;;;;;;;;;5032976;28;20037;-81
2022/01/13 04:08:24;;;;;;;6.85;5.43;;;;;;;;;;5045922;28;20034;-81
2022/01/13 04:10:53;;;;;;;7.45;5.03;;;;;;;;;;4974076;28;20438;-80
2022/01/13 04:13:44;;;;;;;6.32;5.10;;;;;;;;;;5041795;28;20525;-80
2022/01/13 04:16:10;;;;;;;7.20;5.47;;;;;;;;;;5032809;28;20111;-81
2022/01/13 04:18:36;;;;;;;5.38;4.47;;;;;;;;;;5020228;28;20044;-80
2022/01/13 04:21:01;;;;;;;6.47;4.65;;;;;;;;;;5049585;28;20037;-81
2022/01/13 04:23:27;;;;;;;5.70;4.32;;;;;;;;;;5015011;28;20033;-80
2022/01/13 04:25:52;;;;;;;6.72;5.15;;;;;;;;;;5009271;28;20040;-80
2022/01/13 04:28:25;;;;;;;4.82;4.03;;;;;;;;;;5022691;28;20168;-80
2022/01/13 04:30:53;;;;;;;5.40;3.97;;;;;;;;;;5030826;28;20048;-80
2022/01/13 04:33:18;;;;;;;6.25;4.75;;;;;;;;;;5032212;28;20041;-81
2022/01/13 04:35:44;;;;;;;6.03;4.90;;;;;;;;;;5029781;28;20053;-80
2022/01/13 04:38:09;;;;;;;6.03;4.85;;;;;;;;;;5048315;28;20025;-80
2022/01/13 04:40:36;;;;;;;5.55;4.45;;;;;;;;;;5032227;28;20037;-80
2022/01/13 04:43:01;;;;;;;7.03;5.03;;;;;;;;;;5015347;28;20032;-80
2022/01/13 04:45:27;;;;;;;6.63;4.80;;;;;;;;;;5015708;28;20104;-80
2022/01/13 04:47:53;;;;;;;6.40;4.65;;;;;;;;;;5015157;28;20108;-80
2022/01/13 04:50:21;;;;;;;6.32;4.25;;;;;;;;;;5031696;28;20124;-81
2022/01/13 04:52:46;;;;;;;5.45;4.60;;;;;;;;;;5031199;28;20040;-80
2022/01/13 04:55:13;;;;;;;5.80;4.85;;;;;;;;;;5031374;28;20124;-81
2022/01/13 04:57:39;;;;;;;5.70;4.65;;;;;;;;;;5047895;28;20041;-81
2022/01/13 05:00:06;;;;;;;5.18;3.80;;;;;;;;;;5033353;28;20036;-81
2022/01/13 05:02:31;;;;;;;6.75;4.57;;;;;;;;;;5023441;28;20025;-81
2022/01/13 05:04:57;;;;;;;4.85;3.80;;;;;;;;;;4998863;28;20035;-81
2022/01/13 05:07:22;;;;;;;5.43;3.78;;;;;;;;;;4998758;28;20037;-80
2022/01/13 05:09:48;;;;;;;5.43;4.20;;;;;;;;;;5015075;28;20088;-81
2022/01/13 05:12:13;;;;;;;5.72;4.40;;;;;;;;;;5041154;28;20395;-81
2022/01/13 05:14:39;;;;;;;5.28;4.18;;;;;;;;;;5034215;28;20044;-80
2022/01/13 05:17:11;;;;;;;5.43;4.40;;;;;;;;;;5031782;28;20399;-79
2022/01/13 05:19:42;;;;;;;;;;;;;;;;;;5018883;28;20037;-79
2022/01/13 05:24:38;;;;;;;5.20;3.85;;;;;;;;;;5041146;28;20561;-79
2022/01/13 05:27:04;;;;;;;4.95;3.90;;;;;;;;;;4983258;28;20025;-79
2022/01/13 05:29:30;;;;;;;5.00;4.05;;;;;;;;;;5019009;28;20033;-79
2022/01/13 05:31:55;;;;;;;5.00;3.60;;;;;;;;;;5027709;28;20377;-79
2022/01/13 05:34:21;;;;;;;5.45;4.13;;;;;;;;;;5022291;28;20498;-79
2022/01/13 05:36:46;;;;;;;5.00;3.90;;;;;;;;;;5030682;28;20037;-79
2022/01/13 05:39:12;;;;;;;5.55;4.15;;;;;;;;;;4998688;28;20033;-79
2022/01/13 05:41:37;;;;;;;5.38;3.92;;;;;;;;;;4982163;28;20030;-79
2022/01/13 05:44:03;;;;;;;5.63;4.47;;;;;;;;;;5014343;28;20040;-79
2022/01/13 05:46:29;;;;;;;5.18;3.70;;;;;;;;;;5021222;28;20495;-79
2022/01/13 05:48:54;;;;;;;6.60;4.75;;;;;;;;;;5027159;28;20041;-79
2022/01/13 05:51:20;;;;;;;4.43;3.85;;;;;;;;;;5015082;28;20157;-79
2022/01/13 05:53:46;;;;;;;4.55;3.80;;;;;;;;;;5017465;28;20029;-79
2022/01/13 05:56:12;;;;;;;4.85;3.60;;;;;;;;;;5033563;28;20036;-79
2022/01/13 05:58:38;;;;;;;6.10;4.20;;;;;;;;;;5020822;28;20523;-79
2022/01/13 06:01:03;;;;;;;4.68;3.42;;;;;;;;;;5011524;28;20069;-79
2022/01/13 06:03:29;;;;;;;4.82;4.20;;;;;;;;;;5030505;28;20033;-79
2022/01/13 06:05:54;;;;;;;5.00;3.80;;;;;;;;;;4981472;28;20391;-79
2022/01/13 06:08:20;;;;;;;5.25;3.70;;;;;;;;;;4998130;28;20044;-79
2022/01/13 06:10:46;;;;;;;4.28;3.47;;;;;;;;;;4997672;28;20499;-79
2022/01/13 06:13:12;;;;;;;5.78;4.18;;;;;;;;;;5014395;28;20108;-79
2022/01/13 06:15:37;;;;;;;6.40;4.03;;;;;;;;;;5014020;28;20120;-80
2022/01/13 06:18:04;;;;;;;5.28;4.10;;;;;;;;;;5030006;28;20068;-81
2022/01/13 06:20:29;;;;;;;4.63;3.75;;;;;;;;;;5019127;28;20046;-83
2022/01/13 06:22:55;;;;;;;4.00;3.30;;;;;;;;;;5023692;28;20503;-81
2022/01/13 06:25:20;;;;;;;5.22;4.00;;;;;;;;;;5010315;28;20542;-79
2022/01/13 06:27:46;;;;;;;4.90;3.95;;;;;;;;;;5000278;28;20057;-81
2022/01/13 06:30:14;;;;;;;5.00;3.92;;;;;;;;;;5013685;28;20483;-79
2022/01/13 06:32:40;;;;;;;4.43;3.47;;;;;;;;;;5032638;28;20539;-80
2022/01/13 06:35:06;;;;;;;5.63;3.83;;;;;;;;;;5028183;28;20037;-81
2022/01/13 06:37:31;;;;;;;4.60;2.97;;;;;;;;;;5045659;28;20399;-80
2022/01/13 06:39:57;;;;;;;6.78;4.05;;;;;;;;;;5009237;28;20030;-80
2022/01/13 06:42:22;;;;;;;5.57;3.83;;;;;;;;;;5010754;28;20210;-78
2022/01/13 06:44:47;;;;;;;7.60;4.55;;;;;;;;;;5026816;28;20412;-80
2022/01/13 06:47:13;;;;;;;6.88;3.55;;;;;;;;;;5041683;28;20032;-80
2022/01/13 06:49:39;;;;;;;5.45;3.70;;;;;;;;;;5023935;28;20415;-80
2022/01/13 06:52:05;;;;;;;6.88;4.07;;;;;;;;;;4976243;28;20053;-79
2022/01/13 06:54:31;;;;;;;6.93;4.40;;;;;;;;;;4994118;28;20041;-79
2022/01/13 06:56:57;;;;;;;12.55;5.15;;;;;;;;;;4994320;28;20061;-78
2022/01/13 06:59:22;;;;;;;6.85;3.85;;;;;;;;;;4977495;28;20045;-78
2022/01/13 07:01:48;;;;;;;9.68;5.00;;;;;;;;;;5011477;28;20108;-77
2022/01/13 07:04:14;;;;;;;10.20;4.50;;;;;;;;;;4997189;28;20030;-77
2022/01/13 07:06:40;;;;;;;8.05;4.72;;;;;;;;;;4996996;28;20037;-78
2022/01/13 07:09:09;;;;;;;10.27;4.30;;;;;;;;;;5046835;28;20124;-77
2022/01/13 07:11:34;;;;;;;7.80;4.68;;;;;;;;;;5029795;28;20053;-78
2022/01/13 07:14:00;;;;;;;6.75;4.50;;;;;;;;;;5030046;28;20056;-78
2022/01/13 07:16:26;;;;;;;14.45;4.97;;;;;;;;;;5030219;28;20100;-78
2022/01/13 07:18:51;;;;;;;10.80;4.85;;;;;;;;;;5046632;28;20041;-78
2022/01/13 07:21:18;;;;;;;8.07;5.85;;;;;;;;;;5013541;28;20130;-78
2022/01/13 07:23:44;;;;;;;7.93;4.43;;;;;;;;;;5046530;28;20045;-78
2022/01/13 07:26:10;;;;;;;12.20;4.30;;;;;;;;;;5029971;28;20399;-78
2022/01/13 07:28:35;;;;;;;8.45;4.07;;;;;;;;;;5029976;28;20053;-78
2022/01/13 07:31:01;;;;;;;9.50;4.38;;;;;;;;;;5029588;28;20526;-78
2022/01/13 07:33:27;;;;;;;9.15;5.13;;;;;;;;;;5046223;28;20029;-78
2022/01/13 07:35:53;;;;;;;7.70;4.22;;;;;;;;;;5050284;28;20033;-78
2022/01/13 07:38:18;;;;;;;8.98;4.57;;;;;;;;;;4984673;28;20029;-78
2022/01/13 07:40:44;;;;;;;9.35;5.70;;;;;;;;;;5000703;28;20033;-78
2022/01/13 07:43:09;;;;;;;6.82;4.35;;;;;;;;;;5016681;28;20072;-78
2022/01/13 07:45:35;;;;;;;9.95;4.55;;;;;;;;;;5000494;28;20017;-78
2022/01/13 07:48:00;;;;;;;6.53;4.50;;;;;;;;;;4999817;28;20033;-78
2022/01/13 07:50:25;;;;;;;9.38;5.30;;;;;;;;;;5016607;28;20103;-78
2022/01/13 07:52:51;;;;;;;7.45;4.18;;;;;;;;;;5016599;28;20403;-78
2022/01/13 07:55:17;;;;;;;8.55;4.25;;;;;;;;;;5032927;28;20435;-77
2022/01/13 07:57:42;;;;;;;7.55;4.13;;;;;;;;;;5016739;28;20029;-78
2022/01/13 08:00:10;;;;;;;6.95;5.18;;;;;;;;;;5016776;28;20121;-78
2022/01/13 08:02:35;;;;;;;7.30;4.35;;;;;;;;;;5015879;28;20025;-78
2022/01/13 08:05:01;;;;;;;8.02;4.35;;;;;;;;;;5032942;28;20101;-78
2022/01/13 08:07:26;;;;;;;6.47;4.70;;;;;;;;;;5032766;28;20430;-77
2022/01/13 08:09:52;;;;;;;7.45;4.22;;;;;;;;;;5016566;28;20021;-78
2022/01/13 08:12:17;;;;;;;8.73;4.28;;;;;;;;;;5032924;28;20033;-80
2022/01/13 08:14:43;;;;;;;6.88;4.28;;;;;;;;;;5016108;28;20147;-80
2022/01/13 08:17:17;;;;;;;7.07;5.00;;;;;;;;;;5015703;28;20064;-80
2022/01/13 08:19:46;;;;;;;7.90;5.03;;;;;;;;;;5017451;28;20470;-80
2022/01/13 08:22:15;;;;;;;5.68;3.65;;;;;;;;;;5017346;28;20127;-79
2022/01/13 08:24:40;;;;;;;5.57;3.65;;;;;;;;;;5015617;28;20129;-79
2022/01/13 08:27:07;;;;;;;6.50;4.22;;;;;;;;;;4999491;28;20021;-79
2022/01/13 08:29:33;;;;;;;8.55;3.83;;;;;;;;;;4994474;28;20029;-80
2022/01/13 08:31:58;;;;;;;5.57;4.50;;;;;;;;;;5010155;28;20049;-80
2022/01/13 08:34:24;;;;;;;7.93;3.90;;;;;;;;;;5011481;28;20044;-79
2022/01/13 08:36:49;;;;;;;7.03;4.60;;;;;;;;;;5015853;28;20033;-80
2022/01/13 08:39:15;;;;;;;6.85;4.10;;;;;;;;;;4999414;28;20041;-79
2022/01/13 08:41:41;;;;;;;7.60;4.07;;;;;;;;;;5012473;28;20056;-79
2022/01/13 08:44:09;;;;;;;7.38;5.22;;;;;;;;;;5011744;28;20091;-79
2022/01/13 08:46:35;;;;;;;7.50;4.88;;;;;;;;;;5012102;28;20391;-79
2022/01/13 08:49:02;;;;;;;8.23;4.57;;;;;;;;;;5012275;28;20125;-79
2022/01/13 08:51:28;;;;;;;7.15;4.05;;;;;;;;;;5028745;28;20052;-79
2022/01/13 08:53:54;;;;;;;8.85;4.65;;;;;;;;;;5012195;28;20041;-80
2022/01/13 08:56:19;;;;;;;7.28;4.43;;;;;;;;;;4995428;28;20034;-80
2022/01/13 08:58:46;;;;;;;7.47;4.18;;;;;;;;;;5011789;28;20038;-79
2022/01/13 09:01:12;;;;;;;8.23;3.90;;;;;;;;;;5012074;28;20088;-79
2022/01/13 09:03:38;;;;;;;10.13;4.68;;;;;;;;;;5012006;28;20034;-79
2022/01/13 09:06:03;;;;;;;7.72;4.60;;;;;;;;;;5012175;28;20025;-79
2022/01/13 09:08:29;;;;;;;6.05;3.95;;;;;;;;;;4995548;28;20384;-79
2022/01/13 09:10:54;;;;;;;8.30;4.13;;;;;;;;;;5012483;28;20108;-79
2022/01/13 09:13:20;;;;;;;6.45;3.50;;;;;;;;;;5011411;28;20041;-79
2022/01/13 09:15:57;;;;;;;5.95;3.85;;;;;;;;;;4979472;28;20167;-79
2022/01/13 09:18:58;;;;;;;5.78;3.92;;;;;;;;;;5011529;28;20041;-79
2022/01/13 09:21:19;;;;;;;5.78;4.28;;;;;;;;;;5011397;28;20111;-80
2022/01/13 09:23:45;;;;;;;7.40;3.70;;;;;;;;;;4995070;28;20034;-79
2022/01/13 09:26:11;;;;;;;6.32;3.83;;;;;;;;;;5027981;28;20053;-80
2022/01/13 09:28:37;;;;;;;5.45;3.75;;;;;;;;;;5011310;28;20104;-79
2022/01/13 09:31:03;;;;;;;6.38;3.97;;;;;;;;;;4995416;28;20476;-79
2022/01/13 09:33:29;;;;;;;6.03;3.55;;;;;;;;;;4995329;28;20038;-79
2022/01/13 09:35:54;;;;;;;7.53;4.18;;;;;;;;;;5014974;28;20387;-79
2022/01/13 09:38:20;;;;;;;5.20;3.38;;;;;;;;;;4998197;28;20120;-79
2022/01/13 09:40:45;;;;;;;4.82;3.53;;;;;;;;;;4995892;28;20083;-79
2022/01/13 09:43:11;;;;;;;5.95;3.63;;;;;;;;;;4994581;28;20038;-79
2022/01/13 09:45:37;;;;;;;5.25;3.58;;;;;;;;;;5027891;28;20026;-79
2022/01/13 09:48:02;;;;;;;6.03;3.08;;;;;;;;;;5027405;28;20072;-79
2022/01/13 09:50:28;;;;;;;5.53;3.40;;;;;;;;;;5011667;28;20061;-78
2022/01/13 09:52:53;;;;;;;6.80;3.35;;;;;;;;;;4994648;28;20030;-79
2022/01/13 09:55:19;;;;;;;5.95;4.18;;;;;;;;;;5010748;28;20033;-79
2022/01/13 09:57:51;;;;;;;7.03;4.10;;;;;;;;;;5010623;28;20108;-80
2022/01/13 10:00:18;;;;;;;;;;;;;;;;;;5028000;28;20049;-79
2022/01/13 10:02:43;;;;;;;6.38;3.63;;;;;;;;;;5043805;28;19910;-80
2022/01/13 10:05:09;;;;;;;4.90;3.40;;;;;;;;;;5010992;28;20037;-79
2022/01/13 10:07:41;;;;;;;6.95;3.80;;;;;;;;;;4994476;28;20028;-79
2022/01/13 10:10:08;;;;;;;;;;;;;;;;;;5028027;28;20054;-80
2022/01/13 10:12:37;;;;;;;5.43;3.72;;;;;;;;;;5010377;28;19916;-79
2022/01/13 10:17:47;;;;;;;4.95;3.53;;;;;;;;;;5043920;28;20042;-80
2022/01/13 10:20:13;;;;;;;6.70;3.97;;;;;;;;;;5010949;28;20100;-80
2022/01/13 10:22:38;;;;;;;5.28;3.42;;;;;;;;;;5027217;28;20037;-79
2022/01/13 10:25:04;;;;;;;5.00;3.15;;;;;;;;;;5010805;28;20476;-80
2022/01/13 10:27:31;;;;;;;5.60;4.30;;;;;;;;;;5043826;28;20369;-80
2022/01/13 10:30:02;;;;;;;7.13;4.15;;;;;;;;;;4994543;28;20033;-80
2022/01/13 10:32:39;;;;;;;5.25;3.55;;;;;;;;;;5027161;28;20030;-79
2022/01/13 10:35:04;;;;;;;5.90;3.78;;;;;;;;;;5027014;28;20069;-80
2022/01/13 10:37:34;;;;;;;5.50;3.45;;;;;;;;;;5011102;28;20469;-79
2022/01/13 10:40:02;;;;;;;4.60;3.58;;;;;;;;;;4962443;28;20033;-80
2022/01/13 10:43:06;;;;;;;5.28;3.22;;;;;;;;;;5009815;28;20029;-79
2022/01/13 10:45:43;;;;;;;5.80;3.55;;;;;;;;;;5031326;28;20472;-80
2022/01/13 10:48:12;;;;;;;5.53;3.53;;;;;;;;;;5029440;28;20085;-78
2022/01/13 10:51:13;;;;;;;5.35;3.35;;;;;;;;;;5031502;28;20124;-78
2022/01/13 10:53:40;;;;;;;5.25;3.30;;;;;;;;;;4960508;28;20050;-78
2022/01/13 10:56:10;;;;;;;6.82;3.28;;;;;;;;;;5038167;28;20042;-78
2022/01/13 10:58:39;;;;;;;5.60;3.80;;;;;;;;;;5014086;28;20392;-78
2022/01/13 11:01:04;;;;;;;7.45;5.28;;;;;;;;;;5030264;28;20487;-78
2022/01/13 11:03:32;;;;;;;12.32;8.85;;;;;;;;;;5030113;28;20036;-78
2022/01/13 11:05:59;;;;;;;17.02;10.85;;;;;;;;;;5030152;28;20029;-79
2022/01/13 11:08:41;;;;;;;17.08;11.05;;;;;;;;;;5015790;28;20087;-79
2022/01/13 11:11:06;;;;;;;18.40;12.77;;;;;;;;;;5034010;28;20510;-78
2022/01/13 11:13:36;;;;;;;16.95;11.82;;;;;;;;;;5034198;28;20041;-78
2022/01/13 11:16:02;;;;;;;18.52;11.73;;;;;;;;;;5017982;28;20033;-78
2022/01/13 11:18:29;;;;;;;15.95;11.55;;;;;;;;;;5033584;28;20492;-79
2022/01/13 11:20:55;;;;;;;13.82;9.80;;;;;;;;;;5017575;28;20554;-79
2022/01/13 11:23:20;;;;;;;17.40;11.10;;;;;;;;;;5033765;28;20030;-79
2022/01/13 11:25:52;;;;;;;12.20;8.98;;;;;;;;;;5033133;28;20029;-79
2022/01/13 11:28:17;;;;;;;12.57;9.30;;;;;;;;;;5017296;28;20108;-78
2022/01/13 11:30:43;;;;;;;12.45;8.48;;;;;;;;;;5017309;28;20129;-79
2022/01/13 11:33:08;;;;;;;12.20;8.65;;;;;;;;;;5033518;28;20121;-79
2022/01/13 11:35:35;;;;;;;12.30;9.18;;;;;;;;;;5033997;28;20037;-79
2022/01/13 11:38:02;;;;;;;14.05;8.30;;;;;;;;;;5001041;28;20037;-79
2022/01/13 11:40:28;;;;;;;12.90;8.98;;;;;;;;;;5016637;28;20034;-78
2022/01/13 11:42:54;;;;;;;13.45;7.75;;;;;;;;;;5033397;28;20033;-79
2022/01/13 11:45:20;;;;;;;11.98;7.90;;;;;;;;;;5017103;28;20034;-78
2022/01/13 11:47:46;;;;;;;10.57;6.80;;;;;;;;;;5016766;28;20041;-79
2022/01/13 11:50:24;;;;;;;9.70;7.03;;;;;;;;;;5033348;28;20037;-79
2022/01/13 11:52:53;;;;;;;10.73;6.68;;;;;;;;;;5032715;28;20513;-80
2022/01/13 11:55:20;;;;;;;10.30;6.22;;;;;;;;;;5017076;28;20167;-79
2022/01/13 11:57:46;;;;;;;10.23;6.70;;;;;;;;;;5000258;28;20029;-79
2022/01/13 12:00:26;;;;;;;10.05;5.78;;;;;;;;;;5000238;28;20057;-79
2022/01/13 12:02:51;;;;;;;9.77;6.45;;;;;;;;;;5016534;28;20044;-80
2022/01/13 12:05:21;;;;;;;9.77;6.43;;;;;;;;;;5016627;28;20037;-79
2022/01/13 12:07:47;;;;;;;8.93;5.38;;;;;;;;;;5016529;28;20030;-79
2022/01/13 12:10:34;;;;;;;8.85;5.50;;;;;;;;;;5000178;28;20102;-79
2022/01/13 12:12:59;;;;;;;8.95;5.60;;;;;;;;;;5034040;28;20033;-79
2022/01/13 12:15:26;;;;;;;7.90;5.45;;;;;;;;;;4999963;28;20443;-79
2022/01/13 12:17:58;;;;;;;8.20;5.20;;;;;;;;;;4983636;28;20037;-79
2022/01/13 12:20:53;;;;;;;8.77;5.40;;;;;;;;;;5000154;28;20039;-80
2022/01/13 12:23:37;;;;;;;9.48;5.63;;;;;;;;;;5002514;28;20029;-79
2022/01/13 12:26:02;;;;;;;10.27;6.00;;;;;;;;;;5032305;28;20036;-79
2022/01/13 12:28:28;;;;;;;7.85;4.93;;;;;;;;;;5000041;28;20391;-79
2022/01/13 12:30:53;;;;;;;8.57;5.40;;;;;;;;;;5016255;28;20510;-79
2022/01/13 12:33:32;;;;;;;8.80;5.38;;;;;;;;;;4999446;28;20026;-79
2022/01/13 12:35:58;;;;;;;9.05;5.47;;;;;;;;;;5015954;28;20029;-79
2022/01/13 12:38:23;;;;;;;7.00;5.45;;;;;;;;;;5032215;28;20438;-79
2022/01/13 12:40:54;;;;;;;9.05;4.78;;;;;;;;;;5015872;28;20038;-79
2022/01/13 12:46:12;;;;;;;9.38;5.82;;;;;;;;;;5018452;28;20113;-79
2022/01/13 12:48:39;;;;;;;6.90;4.95;;;;;;;;;;4999222;28;20060;-79
2022/01/13 12:51:04;;;;;;;7.20;4.03;;;;;;;;;;4999540;28;20079;-79
2022/01/13 12:53:32;;;;;;;6.57;3.90;;;;;;;;;;4999183;28;20025;-79
2022/01/13 12:56:04;;;;;;;7.72;4.43;;;;;;;;;;5015130;28;20022;-79
2022/01/13 12:58:59;;;;;;;7.00;4.20;;;;;;;;;;5048456;28;20219;-79
2022/01/13 13:01:29;;;;;;;7.20;4.00;;;;;;;;;;5001953;28;20029;-79
2022/01/13 13:04:02;;;;;;;6.53;3.67;;;;;;;;;;4999243;28;20025;-79
2022/01/13 13:06:28;;;;;;;7.05;4.00;;;;;;;;;;4999443;28;20040;-79
2022/01/13 13:08:53;;;;;;;6.43;4.68;;;;;;;;;;5015053;28;20038;-79
2022/01/13 13:11:20;;;;;;;4.95;4.03;;;;;;;;;;5015157;28;20415;-79
2022/01/13 13:13:49;;;;;;;6.13;4.00;;;;;;;;;;4999359;28;20396;-79
2022/01/13 13:16:14;;;;;;;6.20;4.28;;;;;;;;;;4999469;28;20034;-79
2022/01/13 13:18:40;;;;;;;5.93;3.63;;;;;;;;;;4998489;28;20092;-79
2022/01/13 13:21:06;;;;;;;5.85;3.38;;;;;;;;;;5014796;28;20041;-80
2022/01/13 13:23:33;;;;;;;5.32;3.13;;;;;;;;;;4998579;28;20029;-79
2022/01/13 13:26:10;;;;;;;6.13;3.20;;;;;;;;;;4998539;28;20030;-79
2022/01/13 13:28:38;;;;;;;6.72;4.07;;;;;;;;;;4999300;28;20033;-79
2022/01/13 13:31:20;;;;;;;6.20;3.50;;;;;;;;;;4997840;28;20034;-80
2022/01/13 13:34:08;;;;;;;5.47;3.58;;;;;;;;;;4999250;28;20108;-79
2022/01/13 13:36:42;;;;;;;5.82;3.67;;;;;;;;;;5000794;28;20044;-79
2022/01/13 13:39:09;;;;;;;5.18;3.50;;;;;;;;;;4982639;28;20065;-79
2022/01/13 13:41:35;;;;;;;4.57;3.20;;;;;;;;;;4995183;28;20029;-79
2022/01/13 13:44:01;;;;;;;6.18;3.45;;;;;;;;;;5011651;28;20034;-79
2022/01/13 13:46:27;;;;;;;6.30;3.35;;;;;;;;;;4995024;28;20022;-79
2022/01/13 13:48:52;;;;;;;3.92;3.05;;;;;;;;;;4994703;28;20034;-79
2022/01/13 13:51:22;;;;;;;6.55;3.15;;;;;;;;;;4995128;28;20036;-79
2022/01/13 13:54:17;;;;;;;4.93;2.85;;;;;;;;;;4994621;28;20476;-79
2022/01/13 13:56:46;;;;;;;4.68;2.90;;;;;;;;;;5011045;28;20057;-79
2022/01/13 13:59:21;;;;;;;4.97;3.33;;;;;;;;;;5011585;28;20026;-79
2022/01/13 14:02:00;;;;;;;7.30;3.08;;;;;;;;;;4994513;28;20087;-79
2022/01/13 14:04:55;;;;;;;5.75;3.38;;;;;;;;;;5011055;28;20108;-79
2022/01/13 14:07:39;;;;;;;6.53;3.20;;;;;;;;;;4985938;28;20522;-79
2022/01/13 14:10:13;;;;;;;6.40;3.13;;;;;;;;;;4994836;28;20076;-79
2022/01/13 14:12:46;;;;;;;5.35;3.05;;;;;;;;;;5011019;28;20522;-79
2022/01/13 14:15:19;;;;;;;4.47;2.75;;;;;;;;;;4994725;28;20041;-79
2022/01/13 14:17:46;;;;;;;4.70;2.97;;;;;;;;;;5010483;28;20389;-79
2022/01/13 14:20:23;;;;;;;7.78;3.40;;;;;;;;;;5011494;28;20052;-79
2022/01/13 14:22:55;;;;;;;6.45;3.67;;;;;;;;;;5010978;28;20492;-79
2022/01/13 14:25:20;;;;;;;7.60;4.05;;;;;;;;;;4994056;28;20029;-79
2022/01/13 14:27:53;;;;;;;6.63;4.30;;;;;;;;;;4994743;28;20084;-79
2022/01/13 14:30:32;;;;;;;9.60;4.85;;;;;;;;;;4994485;28;20389;-79
2022/01/13 14:33:23;;;;;;;9.05;4.40;;;;;;;;;;5010395;28;20084;-80
2022/01/13 14:36:11;;;;;;;6.68;4.35;;;;;;;;;;4997571;28;20037;-78
2022/01/13 14:38:55;;;;;;;9.52;4.00;;;;;;;;;;5013987;28;20026;-80
2022/01/13 14:41:34;;;;;;;7.72;4.82;;;;;;;;;;5014030;28;20033;-80
2022/01/13 14:44:25;;;;;;;8.77;4.82;;;;;;;;;;5017567;28;20111;-79
2022/01/13 14:46:52;;;;;;;12.32;4.93;;;;;;;;;;5000977;28;20391;-79
2022/01/13 14:49:18;;;;;;;8.32;4.95;;;;;;;;;;5017875;28;20033;-79
2022/01/13 14:51:47;;;;;;;7.38;4.88;;;;;;;;;;5018008;28;20514;-79
2022/01/13 14:54:12;;;;;;;8.52;4.90;;;;;;;;;;5018048;28;20072;-80
2022/01/13 14:56:38;;;;;;;9.98;5.72;;;;;;;;;;5017699;28;20788;-79
2022/01/13 14:59:03;;;;;;;9.73;6.22;;;;;;;;;;5018150;28;20029;-80
2022/01/13 15:01:29;;;;;;;15.68;5.97;;;;;;;;;;5017159;28;20099;-79
2022/01/13 15:03:56;;;;;;;24.83;13.77;;;;;;;;;;5034706;28;20469;-79
2022/01/13 15:06:22;;;;;;;19.92;12.88;;;;;;;;;;5001566;28;20061;-79
2022/01/13 15:08:48;;;;;;;16.83;11.38;;;;;;;;;;5034019;28;20030;-79
2022/01/13 15:11:14;;;;;;;18.85;11.18;;;;;;;;;;5017719;28;20092;-79